Time;durP1;ratioP1;P1;durP2;ratioP2;P2;SDS_P1;SDS_P2;PMS_P1;PMS_P2;Temp;Humidity;BMP_temperature;BMP_pressure;BME280_temperature;BME280_humidity;BME280_pressure;Samples;Min_cycle;Max_cycle;Signal;HPM_P1;HPM_P2
2024/04/25 00:02:09;;;;;;;1.58;0.30;;;5.10;99.90;;;;;;5411937;26;20002;-72
2024/04/25 00:04:35;;;;;;;0.82;0.22;;;5.10;99.90;;;;;;5410835;26;20903;-73
2024/04/25 00:07:01;;;;;;;2.00;0.20;;;5.00;99.90;;;;;;5425629;26;20025;-72
2024/04/25 00:09:29;;;;;;;0.53;0.20;;;4.90;99.90;;;;;;5432099;26;20002;-73
2024/04/25 00:11:56;;;;;;;1.67;0.30;;;4.90;99.90;;;;;;5415869;25;20352;-73
2024/04/25 00:14:22;;;;;;;1.23;0.40;;;4.80;99.90;;;;;;5357975;26;20029;-73
2024/04/25 00:16:48;;;;;;;1.58;0.22;;;4.80;99.90;;;;;;5386731;26;20753;-72
2024/04/25 00:19:15;;;;;;;0.88;0.30;;;4.70;99.90;;;;;;5387465;26;20009;-74
2024/04/25 00:21:41;;;;;;;2.38;0.30;;;4.70;99.90;;;;;;5400373;26;20043;-73
2024/04/25 00:24:08;;;;;;;1.83;0.30;;;4.60;99.90;;;;;;5426515;26;20006;-73
2024/04/25 00:26:34;;;;;;;1.88;0.40;;;4.50;99.90;;;;;;5357789;26;20013;-73
2024/04/25 00:29:01;;;;;;;1.90;0.40;;;4.50;99.90;;;;;;5415497;26;20006;-72
2024/04/25 00:31:28;;;;;;;2.17;0.60;;;4.40;99.90;;;;;;5413738;26;20014;-72
2024/04/25 00:33:54;;;;;;;0.98;0.45;;;4.40;99.90;;;;;;5426283;26;20002;-72
2024/04/25 00:36:21;;;;;;;1.52;0.50;;;4.30;99.90;;;;;;5432612;26;20001;-72
2024/04/25 00:38:47;;;;;;;1.70;0.50;;;4.30;99.90;;;;;;5366272;26;20464;-73
2024/04/25 00:41:14;;;;;;;4.55;0.52;;;4.20;99.90;;;;;;5384437;26;20018;-72
2024/04/25 00:43:41;;;;;;;2.22;0.60;;;4.20;99.90;;;;;;5416340;26;20745;-72
2024/04/25 00:46:07;;;;;;;5.22;0.70;;;4.10;99.90;;;;;;5386410;26;19995;-73
2024/04/25 00:48:34;;;;;;;1.48;0.70;;;4.10;99.90;;;;;;5402090;26;19998;-72
2024/04/25 00:51:04;;;;;;;3.00;0.70;;;4.00;99.90;;;;;;5426369;26;20002;-71
2024/04/25 00:53:31;;;;;;;1.98;0.77;;;4.00;99.90;;;;;;5417099;26;19998;-72
2024/04/25 00:55:58;;;;;;;3.47;0.70;;;4.00;99.90;;;;;;5411658;26;19998;-73
2024/04/25 00:58:27;;;;;;;2.72;0.70;;;4.00;99.90;;;;;;5415250;26;21123;-73
2024/04/25 01:00:56;;;;;;;2.63;1.13;;;3.90;99.90;;;;;;5388369;26;20124;-72
2024/04/25 01:03:23;;;;;;;4.97;0.90;;;3.90;99.90;;;;;;5432959;26;20917;-73
2024/04/25 01:05:54;;;;;;;3.97;0.70;;;3.90;99.90;;;;;;5389650;26;20006;-72
2024/04/25 01:08:20;;;;;;;2.65;0.70;;;3.90;99.90;;;;;;5438198;25;20006;-72
2024/04/25 01:10:50;;;;;;;3.35;0.90;;;3.90;99.90;;;;;;5466773;25;20883;-73
2024/04/25 01:13:16;;;;;;;2.95;0.85;;;3.90;99.90;;;;;;5386741;26;20006;-72
2024/04/25 01:15:43;;;;;;;5.37;1.10;;;4.00;99.90;;;;;;5429539;26;20013;-73
2024/04/25 01:18:13;;;;;;;3.15;1.33;;;4.00;99.90;;;;;;5421066;26;20010;-73
2024/04/25 01:20:40;;;;;;;4.17;1.27;;;4.10;99.90;;;;;;5413955;26;19998;-73
2024/04/25 01:23:10;;;;;;;6.60;1.42;;;4.10;99.90;;;;;;5384804;26;20967;-71
2024/04/25 01:25:38;;;;;;;6.60;1.58;;;4.10;99.90;;;;;;5467198;25;20026;-72
2024/04/25 01:28:05;;;;;;;3.25;0.90;;;4.00;99.90;;;;;;5398045;26;20021;-73
2024/04/25 01:30:34;;;;;;;2.17;1.15;;;4.00;99.90;;;;;;5429772;26;20020;-73
2024/04/25 01:33:02;;;;;;;7.85;1.75;;;4.00;99.90;;;;;;5411436;26;20121;-74
2024/04/25 01:35:31;;;;;;;5.78;1.50;;;4.00;99.90;;;;;;5412270;26;20022;-73
2024/04/25 01:37:59;;;;;;;9.38;1.70;;;3.90;99.90;;;;;;5412685;26;20020;-73
2024/04/25 01:40:26;;;;;;;3.95;1.75;;;3.90;99.90;;;;;;5383630;26;20481;-73
2024/04/25 01:42:53;;;;;;;6.90;2.07;;;3.90;99.90;;;;;;5430923;26;21125;-73
2024/04/25 01:45:19;;;;;;;7.47;2.45;;;3.80;99.90;;;;;;5393776;26;20763;-72
2024/04/25 01:47:46;;;;;;;9.70;2.97;;;3.80;99.90;;;;;;5379043;26;19994;-72
2024/04/25 01:50:12;;;;;;;10.53;2.80;;;3.80;99.90;;;;;;5414836;26;20013;-72
2024/04/25 01:52:38;;;;;;;11.07;3.40;;;3.80;99.90;;;;;;5414763;26;20006;-73
2024/04/25 01:55:05;;;;;;;15.73;3.13;;;3.80;99.90;;;;;;5424207;26;22555;-72
2024/04/25 01:57:32;;;;;;;9.73;2.75;;;3.70;99.90;;;;;;5432673;26;20016;-72
2024/04/25 01:59:58;;;;;;;10.30;2.63;;;3.70;99.90;;;;;;5388137;26;20021;-72
2024/04/25 02:02:25;;;;;;;7.18;2.38;;;3.70;99.90;;;;;;5414011;26;20609;-73
2024/04/25 02:04:51;;;;;;;8.70;3.70;;;3.70;99.90;;;;;;5417107;26;20010;-72
2024/04/25 02:07:17;;;;;;;9.90;3.05;;;3.70;99.90;;;;;;5390224;26;19994;-72
2024/04/25 02:09:44;;;;;;;9.98;3.80;;;3.70;99.90;;;;;;5401755;26;19998;-71
2024/04/25 02:12:10;;;;;;;8.93;3.15;;;3.80;99.90;;;;;;5430616;26;20002;-73
2024/04/25 02:14:37;;;;;;;11.95;3.75;;;3.80;99.90;;;;;;5387133;26;20020;-72
2024/04/25 02:17:03;;;;;;;13.40;3.80;;;3.80;99.90;;;;;;5355649;26;20028;-73
2024/04/25 02:19:30;;;;;;;15.83;4.90;;;3.80;99.90;;;;;;5415504;26;20007;-74
2024/04/25 02:25:14;;;;;;;10.68;3.78;;;3.80;99.90;;;;;;5401314;26;20002;-72
2024/04/25 02:27:33;;;;;;;8.98;3.38;;;3.80;99.90;;;;;;5416723;26;20010;-72
2024/04/25 02:30:00;;;;;;;8.50;3.17;;;3.80;99.90;;;;;;5413692;26;20645;-73
2024/04/25 02:32:26;;;;;;;10.15;4.10;;;3.90;99.90;;;;;;5384462;26;20665;-73
2024/04/25 02:34:52;;;;;;;9.67;3.30;;;3.90;99.90;;;;;;5393177;26;20002;-73
2024/04/25 02:37:19;;;;;;;7.30;3.28;;;3.90;99.90;;;;;;5403391;26;20525;-73
2024/04/25 02:39:47;;;;;;;10.30;3.85;;;3.90;99.90;;;;;;5365525;26;21147;-73
2024/04/25 02:42:14;;;;;;;5.60;3.22;;;4.00;99.90;;;;;;5381143;26;20338;-73
2024/04/25 02:44:41;;;;;;;9.50;3.67;;;4.00;99.90;;;;;;5381227;26;20120;-72
2024/04/25 02:47:08;;;;;;;8.05;3.67;;;4.10;99.90;;;;;;5383990;26;20017;-72
2024/04/25 02:49:34;;;;;;;14.40;3.93;;;4.10;99.90;;;;;;5399190;26;20020;-72
2024/04/25 02:52:00;;;;;;;9.68;3.67;;;4.10;99.90;;;;;;5366386;26;20010;-73
2024/04/25 02:54:26;;;;;;;8.18;2.85;;;4.10;99.90;;;;;;5410491;26;20002;-73
2024/04/25 02:56:53;;;;;;;7.78;3.00;;;4.10;99.90;;;;;;5381756;26;19998;-73
2024/04/25 02:59:19;;;;;;;9.05;2.50;;;4.10;99.90;;;;;;5381483;26;20009;-72
2024/04/25 03:01:46;;;;;;;9.00;2.38;;;4.10;99.90;;;;;;5388113;26;20010;-72
2024/04/25 03:04:13;;;;;;;6.35;2.17;;;4.10;99.90;;;;;;5430830;26;20462;-72
2024/04/25 03:06:39;;;;;;;8.50;2.05;;;4.10;99.90;;;;;;5385546;26;20005;-72
2024/04/25 03:09:08;;;;;;;6.60;2.03;;;4.10;99.90;;;;;;5383866;26;19994;-73
2024/04/25 03:11:35;;;;;;;7.20;2.05;;;4.00;99.90;;;;;;5380610;26;20013;-72
2024/04/25 03:14:01;;;;;;;5.50;1.65;;;4.00;99.90;;;;;;5356321;26;20002;-73
2024/04/25 03:16:27;;;;;;;5.93;1.52;;;3.90;99.90;;;;;;5375340;26;20006;-72
2024/04/25 03:18:54;;;;;;;6.13;1.33;;;3.90;99.90;;;;;;5383876;26;20006;-73
2024/04/25 03:21:20;;;;;;;4.93;1.77;;;3.80;99.90;;;;;;5407459;26;20005;-73
2024/04/25 03:23:46;;;;;;;7.65;2.13;;;3.80;99.90;;;;;;5411787;26;20365;-73
2024/04/25 03:26:13;;;;;;;5.97;2.47;;;3.80;99.90;;;;;;5409597;26;20024;-72
2024/04/25 03:28:39;;;;;;;3.80;1.73;;;3.70;99.90;;;;;;5397224;26;20840;-73
2024/04/25 03:31:06;;;;;;;9.18;2.45;;;3.70;99.90;;;;;;5430154;26;20117;-72
2024/04/25 03:33:32;;;;;;;6.53;2.03;;;3.70;99.90;;;;;;5414209;26;20017;-72
2024/04/25 03:35:58;;;;;;;2.97;1.90;;;3.70;99.90;;;;;;5381447;26;20061;-72
2024/04/25 03:38:25;;;;;;;10.20;2.65;;;3.60;99.90;;;;;;5411054;26;20013;-73
2024/04/25 03:40:51;;;;;;;3.30;1.77;;;3.60;99.90;;;;;;5384339;26;20002;-72
2024/04/25 03:43:18;;;;;;;4.83;2.17;;;3.60;99.90;;;;;;5402985;26;19994;-73
2024/04/25 03:45:44;;;;;;;8.57;2.67;;;3.60;99.90;;;;;;5424015;26;21836;-73
2024/04/25 03:48:11;;;;;;;6.22;2.55;;;3.60;99.90;;;;;;5412739;26;20009;-72
2024/04/25 03:50:37;;;;;;;6.03;2.40;;;3.60;99.90;;;;;;5412467;26;20010;-70
2024/04/25 03:53:04;;;;;;;4.13;1.90;;;3.60;99.90;;;;;;5381961;26;20013;-72
2024/04/25 03:55:30;;;;;;;4.70;1.93;;;3.60;99.90;;;;;;5388919;26;20738;-73
2024/04/25 03:57:56;;;;;;;4.37;2.47;;;3.60;99.90;;;;;;5428683;26;20006;-72
2024/04/25 04:00:23;;;;;;;8.65;2.88;;;3.60;99.90;;;;;;5387936;26;20010;-73
2024/04/25 04:02:49;;;;;;;7.25;2.78;;;3.60;99.90;;;;;;5379996;26;19999;-73
2024/04/25 04:05:16;;;;;;;8.52;3.17;;;3.70;99.90;;;;;;5409492;26;20014;-73
2024/04/25 04:07:44;;;;;;;10.20;3.13;;;3.60;99.90;;;;;;5419895;26;20017;-73
2024/04/25 04:10:12;;;;;;;6.50;3.17;;;3.70;99.90;;;;;;5424185;26;20017;-73
2024/04/25 04:12:38;;;;;;;6.15;1.95;;;3.70;99.90;;;;;;5441070;25;20021;-72
2024/04/25 04:15:05;;;;;;;6.03;2.55;;;3.70;99.90;;;;;;5411585;26;20736;-72
2024/04/25 04:17:31;;;;;;;6.63;2.07;;;3.70;99.90;;;;;;5385012;26;20445;-72
2024/04/25 04:19:58;;;;;;;7.10;2.13;;;3.60;99.90;;;;;;5383042;26;20025;-72
2024/04/25 04:22:24;;;;;;;4.78;2.70;;;3.60;99.90;;;;;;5392229;26;20006;-72
2024/04/25 04:24:50;;;;;;;6.25;1.98;;;3.60;99.90;;;;;;5423393;26;20129;-72
2024/04/25 04:27:17;;;;;;;9.67;3.03;;;3.50;99.90;;;;;;5374260;26;20017;-72
2024/04/25 04:29:43;;;;;;;6.63;2.83;;;3.50;99.90;;;;;;5409430;26;20003;-73
2024/04/25 04:32:10;;;;;;;9.73;4.03;;;3.50;99.90;;;;;;5411218;26;19994;-73
2024/04/25 04:34:36;;;;;;;9.13;4.03;;;3.40;99.90;;;;;;5415556;26;20013;-72
2024/04/25 04:37:02;;;;;;;7.70;3.00;;;3.40;99.90;;;;;;5427336;26;20002;-71
2024/04/25 04:39:29;;;;;;;7.72;3.47;;;3.50;99.90;;;;;;5422767;26;20620;-72
2024/04/25 04:41:55;;;;;;;7.80;3.77;;;3.40;99.90;;;;;;5380592;26;20010;-73
2024/04/25 04:44:21;;;;;;;9.13;3.17;;;3.50;99.90;;;;;;5414557;26;20368;-72
2024/04/25 04:46:48;;;;;;;9.90;4.30;;;3.60;99.90;;;;;;5385531;26;20010;-72
2024/04/25 04:49:20;;;;;;;8.50;3.42;;;3.70;99.90;;;;;;5422828;26;20020;-73
2024/04/25 04:51:47;;;;;;;;;;;3.80;99.90;;;;;;5432340;26;20014;-72
2024/04/25 04:54:13;;;;;;;7.13;3.10;;;3.80;99.90;;;;;;5392474;26;20279;-71
2024/04/25 04:56:44;;;;;;;5.90;3.33;;;3.90;99.90;;;;;;5422056;26;22626;-73
2024/04/25 04:59:13;;;;;;;8.88;3.67;;;4.00;99.90;;;;;;5391628;26;20368;-72
2024/04/25 05:01:39;;;;;;;10.35;3.53;;;4.10;99.90;;;;;;5421372;26;20006;-72
2024/04/25 05:04:06;;;;;;;9.15;3.15;;;4.20;99.90;;;;;;5457319;25;20417;-71
2024/04/25 05:06:32;;;;;;;7.93;4.07;;;4.20;99.90;;;;;;5431168;26;20020;-71
2024/04/25 05:08:59;;;;;;;11.37;3.40;;;4.30;99.90;;;;;;5423723;26;20668;-72
2024/04/25 05:11:27;;;;;;;8.45;4.20;;;4.40;99.90;;;;;;5389611;26;20011;-72
2024/04/25 05:13:53;;;;;;;9.35;4.00;;;4.50;99.90;;;;;;5422878;26;20020;-71
2024/04/25 05:16:20;;;;;;;8.47;4.17;;;4.50;99.90;;;;;;5429765;26;20010;-72
2024/04/25 05:18:46;;;;;;;9.07;4.47;;;4.60;99.90;;;;;;5438092;26;20010;-72
2024/04/25 05:21:13;;;;;;;8.15;4.05;;;4.60;99.90;;;;;;5392997;26;20629;-74
2024/04/25 05:23:39;;;;;;;6.07;4.35;;;4.70;99.90;;;;;;5425646;26;20010;-71
2024/04/25 05:26:07;;;;;;;8.18;4.80;;;4.70;99.90;;;;;;5390171;26;20002;-73
2024/04/25 05:28:33;;;;;;;16.67;5.25;;;4.80;99.90;;;;;;5424986;26;20006;-72
2024/04/25 05:31:00;;;;;;;10.52;5.20;;;4.80;99.90;;;;;;5379290;26;21207;-73
2024/04/25 05:33:26;;;;;;;8.27;4.10;;;4.90;99.90;;;;;;5404810;26;19998;-72
2024/04/25 05:35:52;;;;;;;8.82;5.03;;;4.90;99.90;;;;;;5359281;26;19999;-72
2024/04/25 05:38:19;;;;;;;9.02;5.82;;;4.90;99.90;;;;;;5391545;26;19998;-71
2024/04/25 05:40:45;;;;;;;8.48;4.68;;;5.00;99.90;;;;;;5387891;26;20010;-72
2024/04/25 05:43:11;;;;;;;11.15;5.55;;;5.00;99.90;;;;;;5429863;26;20010;-71
2024/04/25 05:45:38;;;;;;;13.07;4.95;;;5.00;99.90;;;;;;5375376;26;20016;-72
2024/04/25 05:48:05;;;;;;;10.40;6.35;;;5.10;99.90;;;;;;5394688;26;20090;-75
2024/04/25 05:50:31;;;;;;;11.75;6.15;;;5.10;99.90;;;;;;5417050;26;20358;-71
2024/04/25 05:52:58;;;;;;;14.32;6.82;;;5.20;99.90;;;;;;5419809;26;20002;-73
2024/04/25 05:55:24;;;;;;;11.32;5.85;;;5.30;99.90;;;;;;5426344;26;20356;-72
2024/04/25 05:57:51;;;;;;;12.27;7.28;;;5.30;99.90;;;;;;5377166;26;20582;-71
2024/04/25 06:00:17;;;;;;;15.15;7.45;;;5.40;99.90;;;;;;5367772;26;20458;-71
2024/04/25 06:02:44;;;;;;;15.68;9.13;;;5.40;99.90;;;;;;5392872;26;20009;-71
2024/04/25 06:05:11;;;;;;;15.75;7.65;;;5.40;99.90;;;;;;5359393;26;19995;-72
2024/04/25 06:07:37;;;;;;;15.65;9.50;;;5.50;99.90;;;;;;5421897;26;19998;-73
2024/04/25 06:10:04;;;;;;;17.38;8.60;;;5.50;99.90;;;;;;5432469;26;19998;-72
2024/04/25 06:12:30;;;;;;;19.48;9.80;;;5.50;99.90;;;;;;5434236;26;20002;-72
2024/04/25 06:14:57;;;;;;;17.88;8.70;;;5.60;99.90;;;;;;5422386;26;20020;-72
2024/04/25 06:17:23;;;;;;;10.88;7.40;;;5.60;99.90;;;;;;5421194;26;19998;-72
2024/04/25 06:19:49;;;;;;;14.52;6.15;;;5.70;99.90;;;;;;5392771;26;20025;-72
2024/04/25 06:22:16;;;;;;;12.57;4.25;;;5.80;99.90;;;;;;5420025;26;20010;-72
2024/04/25 06:24:42;;;;;;;9.52;4.65;;;5.90;99.90;;;;;;5433085;26;20006;-73
2024/04/25 06:27:09;;;;;;;10.15;3.78;;;5.90;99.90;;;;;;5400381;26;20006;-73
2024/04/25 06:29:35;;;;;;;7.10;3.05;;;5.90;99.90;;;;;;5418632;26;20006;-72
2024/04/25 06:32:01;;;;;;;6.05;2.80;;;5.90;99.90;;;;;;5418160;26;20674;-72
2024/04/25 06:34:30;;;;;;;10.00;2.90;;;5.90;99.90;;;;;;5423951;26;20051;-73
2024/04/25 06:37:02;;;;;;;3.50;1.80;;;6.00;99.90;;;;;;5433343;26;20002;-73
2024/04/25 06:39:28;;;;;;;6.13;2.92;;;6.00;99.90;;;;;;5432884;26;20002;-73
2024/04/25 06:41:56;;;;;;;4.22;2.47;;;6.00;99.90;;;;;;5407576;26;20027;-73
2024/04/25 06:44:22;;;;;;;8.48;3.15;;;6.00;99.90;;;;;;5417698;26;21536;-72
2024/04/25 06:46:48;;;;;;;5.32;3.10;;;6.20;99.90;;;;;;5421113;26;20010;-74
2024/04/25 06:49:15;;;;;;;11.18;4.10;;;6.30;99.90;;;;;;5394817;26;20006;-72
2024/04/25 06:51:41;;;;;;;6.90;4.22;;;6.40;99.90;;;;;;5433196;26;20002;-72
2024/04/25 06:54:07;;;;;;;12.18;5.63;;;6.60;99.90;;;;;;5425902;26;20010;-71
2024/04/25 06:56:34;;;;;;;10.40;5.28;;;6.70;99.90;;;;;;5360800;26;20002;-72
2024/04/25 06:59:00;;;;;;;9.05;6.10;;;6.80;99.90;;;;;;5391848;26;20024;-72
2024/04/25 07:01:26;;;;;;;9.23;5.40;;;6.90;99.90;;;;;;5413843;26;20002;-72
2024/04/25 07:03:54;;;;;;;7.55;5.47;;;7.00;99.90;;;;;;5431459;26;20002;-72
2024/04/25 07:06:20;;;;;;;9.90;6.28;;;7.10;99.90;;;;;;5389674;26;19999;-73
2024/04/25 07:08:47;;;;;;;9.82;5.53;;;7.20;99.90;;;;;;5388524;26;20617;-72
2024/04/25 07:11:13;;;;;;;12.00;4.82;;;7.20;99.90;;;;;;5439838;25;20021;-73
2024/04/25 07:13:39;;;;;;;9.35;4.63;;;7.30;99.90;;;;;;5414363;26;20364;-74
2024/04/25 07:16:07;;;;;;;6.47;4.43;;;7.40;99.90;;;;;;5396577;26;20016;-73
2024/04/25 07:18:33;;;;;;;11.02;5.57;;;7.40;99.90;;;;;;5399212;26;20073;-74
2024/04/25 07:21:00;;;;;;;9.65;5.00;;;7.60;99.90;;;;;;5382681;26;21818;-73
2024/04/25 07:23:26;;;;;;;6.93;4.18;;;7.80;99.90;;;;;;5352953;26;20017;-74
2024/04/25 07:25:55;;;;;;;9.73;4.25;;;7.90;99.90;;;;;;5410046;26;20012;-72
2024/04/25 07:28:21;;;;;;;9.18;3.00;;;8.00;99.90;;;;;;5358323;26;20789;-72
2024/04/25 07:30:47;;;;;;;7.18;3.13;;;8.00;99.90;;;;;;5431023;26;20006;-72
2024/04/25 07:33:13;;;;;;;7.10;3.10;;;8.20;99.90;;;;;;5419743;26;20025;-72
2024/04/25 07:35:40;;;;;;;13.32;3.78;;;8.30;99.90;;;;;;5409572;26;20025;-72
2024/04/25 07:38:06;;;;;;;7.43;3.33;;;8.40;99.90;;;;;;5390168;26;20320;-74
2024/04/25 07:40:36;;;;;;;7.10;2.75;;;8.70;99.90;;;;;;5416401;26;20010;-72
2024/04/25 07:43:04;;;;;;;8.25;2.83;;;8.90;99.90;;;;;;5398884;26;20021;-72
2024/04/25 07:45:31;;;;;;;9.23;2.47;;;9.20;99.90;;;;;;5431571;26;20012;-71
2024/04/25 07:47:57;;;;;;;7.35;3.30;;;9.40;99.90;;;;;;5390036;26;20445;-72
2024/04/25 07:50:23;;;;;;;8.88;2.85;;;9.60;99.90;;;;;;5388549;26;20010;-73
2024/04/25 07:52:50;;;;;;;7.03;2.80;;;9.60;99.90;;;;;;5411331;26;20571;-73
2024/04/25 07:55:16;;;;;;;8.13;3.10;;;9.70;99.90;;;;;;5421222;26;20310;-73
2024/04/25 07:57:42;;;;;;;8.05;2.53;;;9.70;99.90;;;;;;5431879;26;19999;-73
2024/04/25 08:00:09;;;;;;;6.85;2.33;;;9.80;99.90;;;;;;5424003;26;20002;-72
2024/04/25 08:02:39;;;;;;;10.13;3.08;;;9.80;99.90;;;;;;5415664;26;20002;-72
2024/04/25 08:05:06;;;;;;;4.93;2.17;;;9.70;99.90;;;;;;5385637;26;20003;-72
2024/04/25 08:07:35;;;;;;;9.48;2.55;;;9.50;99.90;;;;;;5361486;26;19998;-72
2024/04/25 08:10:03;;;;;;;8.10;2.65;;;9.40;99.90;;;;;;5421509;26;19998;-72
2024/04/25 08:12:30;;;;;;;7.57;2.47;;;9.30;99.90;;;;;;5428548;26;20432;-72
2024/04/25 08:14:57;;;;;;;6.55;2.17;;;9.30;99.90;;;;;;5421409;26;20136;-72
2024/04/25 08:17:23;;;;;;;5.47;1.98;;;9.40;99.90;;;;;;5384317;26;21994;-73
2024/04/25 08:19:52;;;;;;;5.30;1.75;;;9.50;99.90;;;;;;5384541;26;20017;-73
2024/04/25 08:22:22;;;;;;;5.68;2.10;;;9.70;99.90;;;;;;5381832;26;20013;-72
2024/04/25 08:24:49;;;;;;;5.57;2.10;;;10.00;99.90;;;;;;5392698;26;20012;-72
2024/04/25 08:27:16;;;;;;;5.57;1.88;;;10.20;99.90;;;;;;5374938;26;20006;-73
2024/04/25 08:29:42;;;;;;;5.30;1.42;;;10.50;99.90;;;;;;5426289;26;20378;-76
2024/04/25 08:32:09;;;;;;;6.60;1.90;;;10.60;99.90;;;;;;5389183;26;20517;-72
2024/04/25 08:34:35;;;;;;;5.10;1.30;;;10.70;99.90;;;;;;5433476;26;20008;-71
2024/04/25 08:37:02;;;;;;;4.22;1.20;;;10.80;99.90;;;;;;5423644;26;19998;-73
2024/04/25 08:39:28;;;;;;;6.90;1.33;;;10.80;99.90;;;;;;5436229;26;19998;-72
2024/04/25 08:41:56;;;;;;;5.65;1.48;;;10.80;99.90;;;;;;5407079;26;20013;-72
2024/04/25 08:44:23;;;;;;;3.85;1.30;;;10.70;99.90;;;;;;5366332;26;20361;-72
2024/04/25 08:46:50;;;;;;;5.28;1.48;;;10.70;99.90;;;;;;5389291;26;20374;-72
2024/04/25 08:49:19;;;;;;;5.90;1.15;;;10.70;99.90;;;;;;5416516;26;20494;-72
2024/04/25 08:51:46;;;;;;;7.05;1.13;;;10.70;99.90;;;;;;5388470;26;20532;-73
2024/04/25 08:54:19;;;;;;;3.25;0.80;;;10.70;99.90;;;;;;5487961;25;20016;-72
2024/04/25 08:56:45;;;;;;;;;;;10.60;99.90;;;;;;5436905;26;20883;-73
2024/04/25 08:59:12;;;;;;;6.88;1.33;;;10.50;99.90;;;;;;5478861;25;21022;-72
2024/04/25 09:01:40;;;;;;;3.15;0.70;;;10.30;99.90;;;;;;5423526;26;20471;-72
2024/04/25 09:04:14;;;;;;;7.18;1.05;;;10.10;99.90;;;;;;5423385;26;20333;-72
2024/04/25 09:06:40;;;;;;;2.95;0.63;;;10.00;99.90;;;;;;5420939;26;20479;-72
2024/04/25 09:09:07;;;;;;;6.30;0.82;;;9.90;99.90;;;;;;5433677;26;20010;-72
2024/04/25 09:11:33;;;;;;;5.47;1.20;;;9.90;99.90;;;;;;5400869;26;21231;-72
2024/04/25 09:13:59;;;;;;;6.10;0.90;;;9.90;99.90;;;;;;5390762;26;20006;-72
2024/04/25 09:16:26;;;;;;;6.95;1.80;;;10.00;99.90;;;;;;5385986;26;20006;-72
2024/04/25 09:18:54;;;;;;;4.55;0.82;;;10.10;99.90;;;;;;5420512;26;20022;-73
2024/04/25 09:21:20;;;;;;;8.48;1.58;;;10.10;99.90;;;;;;5394236;26;20452;-73
2024/04/25 09:23:46;;;;;;;3.30;0.90;;;10.20;99.90;;;;;;5402294;26;20002;-72
2024/04/25 09:26:13;;;;;;;5.88;1.50;;;10.30;99.90;;;;;;5437499;26;20464;-73
2024/04/25 09:28:39;;;;;;;5.70;1.23;;;10.60;99.90;;;;;;5403193;26;20025;-72
2024/04/25 09:31:07;;;;;;;5.65;1.48;;;11.00;99.90;;;;;;5419062;26;20062;-73
2024/04/25 09:33:34;;;;;;;3.67;1.23;;;11.30;99.90;;;;;;5421996;26;20002;-73
2024/04/25 09:36:01;;;;;;;3.28;1.00;;;11.60;99.90;;;;;;5390712;26;20012;-73
2024/04/25 09:38:27;;;;;;;5.18;1.67;;;11.80;99.90;;;;;;5395688;26;20010;-73
2024/04/25 09:40:56;;;;;;;7.15;1.42;;;12.00;99.90;;;;;;5419016;26;20020;-72
2024/04/25 09:43:23;;;;;;;3.55;1.00;;;12.00;99.90;;;;;;5435043;26;19998;-72
2024/04/25 09:45:50;;;;;;;3.67;0.98;;;12.10;99.90;;;;;;5406774;26;20010;-73
2024/04/25 09:48:19;;;;;;;3.72;0.82;;;12.10;99.90;;;;;;5429441;26;20031;-73
2024/04/25 09:50:47;;;;;;;3.95;0.68;;;12.20;99.90;;;;;;5361251;26;20357;-73
2024/04/25 09:53:33;;;;;;;4.50;1.15;;;12.30;99.90;;;;;;5421173;26;20391;-72
2024/04/25 09:56:01;;;;;;;1.52;0.50;;;12.40;99.90;;;;;;5419985;26;20002;-72
2024/04/25 09:58:48;;;;;;;4.72;0.77;;;12.50;99.90;;;;;;5393706;26;20820;-72
2024/04/25 10:01:15;;;;;;;5.50;0.60;;;12.70;99.90;;;;;;5399488;26;20571;-72
2024/04/25 10:03:42;;;;;;;3.22;0.50;;;12.80;99.90;;;;;;5405616;26;19998;-73
2024/04/25 10:06:09;;;;;;;2.42;0.73;;;12.90;99.90;;;;;;5403159;26;20372;-73
2024/04/25 10:08:37;;;;;;;4.20;0.50;;;13.00;99.90;;;;;;5391083;26;20014;-73
2024/04/25 10:11:05;;;;;;;6.65;0.68;;;12.90;99.90;;;;;;5388124;26;22643;-72
2024/04/25 10:13:31;;;;;;;3.08;0.80;;;13.00;99.90;;;;;;5390204;26;20010;-72
2024/04/25 10:15:58;;;;;;;2.47;0.50;;;13.00;99.90;;;;;;5422438;26;20377;-75
2024/04/25 10:18:26;;;;;;;1.95;0.50;;;13.00;99.90;;;;;;5391058;26;20021;-73
2024/04/25 10:21:02;;;;;;;4.72;0.80;;;13.00;99.90;;;;;;5407990;26;19998;-73
2024/04/25 10:23:33;;;;;;;4.57;0.90;;;13.00;99.90;;;;;;5432562;26;20010;-73
2024/04/25 10:26:00;;;;;;;3.47;1.17;;;12.90;99.90;;;;;;5423121;26;20016;-73
2024/04/25 10:28:28;;;;;;;3.40;0.90;;;12.80;99.90;;;;;;5422040;26;20016;-72
2024/04/25 10:30:55;;;;;;;2.60;0.70;;;12.70;99.90;;;;;;5459676;26;20016;-72
2024/04/25 10:33:22;;;;;;;5.05;1.00;;;12.80;99.90;;;;;;5394076;26;20917;-72
2024/04/25 10:35:50;;;;;;;3.95;0.95;;;12.90;99.90;;;;;;5455299;26;20014;-72
2024/04/25 10:38:22;;;;;;;2.85;0.85;;;13.10;99.90;;;;;;5407648;26;20003;-72
2024/04/25 10:40:49;;;;;;;4.00;0.93;;;13.20;99.90;;;;;;5403053;26;20455;-72
2024/04/25 10:43:16;;;;;;;5.25;1.02;;;13.10;99.90;;;;;;5421426;26;20016;-72
2024/04/25 10:45:43;;;;;;;4.13;0.60;;;13.10;99.90;;;;;;5357710;26;20495;-71
2024/04/25 10:48:09;;;;;;;3.10;0.63;;;12.90;99.90;;;;;;5422455;26;20029;-72
2024/04/25 10:50:37;;;;;;;2.45;0.52;;;12.60;99.90;;;;;;5391316;26;20481;-71
2024/04/25 10:53:03;;;;;;;3.03;0.50;;;12.30;99.90;;;;;;5389756;26;20020;-71
2024/04/25 10:55:30;;;;;;;2.50;0.50;;;11.90;99.90;;;;;;5429110;26;20006;-72
2024/04/25 10:57:58;;;;;;;3.17;0.75;;;11.60;99.90;;;;;;5431885;26;20520;-72
2024/04/25 11:00:24;;;;;;;2.90;0.60;;;11.30;99.90;;;;;;5455347;26;20006;-72
2024/04/25 11:02:51;;;;;;;2.05;0.50;;;11.10;99.90;;;;;;5409875;26;20024;-71
2024/04/25 11:05:17;;;;;;;3.78;0.60;;;10.90;99.90;;;;;;5354119;26;20025;-71
2024/04/25 11:07:44;;;;;;;2.58;0.40;;;10.70;99.90;;;;;;5413704;26;20020;-72
2024/04/25 11:10:10;;;;;;;3.53;0.40;;;10.60;99.90;;;;;;5413117;26;20024;-72
2024/04/25 11:12:39;;;;;;;2.03;0.40;;;10.50;99.90;;;;;;5382208;26;20010;-72
2024/04/25 11:15:18;;;;;;;4.07;0.50;;;10.60;99.90;;;;;;5369960;26;20016;-72
2024/04/25 11:17:45;;;;;;;5.85;0.45;;;10.70;99.90;;;;;;5402630;26;20016;-72
2024/04/25 11:20:11;;;;;;;3.30;0.68;;;10.70;99.90;;;;;;5426236;26;20010;-72
2024/04/25 11:22:38;;;;;;;2.53;0.50;;;10.90;99.90;;;;;;5414568;26;21357;-72
2024/04/25 11:25:19;;;;;;;2.47;0.47;;;11.10;99.90;;;;;;5417286;26;21080;-72
2024/04/25 11:27:48;;;;;;;5.85;0.70;;;11.30;99.90;;;;;;5418371;26;20453;-72
2024/04/25 11:30:14;;;;;;;3.08;0.77;;;11.30;99.90;;;;;;5416901;26;20006;-72
2024/04/25 11:32:44;;;;;;;3.95;0.65;;;11.20;99.90;;;;;;5449931;25;21012;-72
2024/04/25 11:35:10;;;;;;;6.07;0.80;;;11.30;99.90;;;;;;5427612;26;20932;-72
2024/04/25 11:37:38;;;;;;;3.45;0.50;;;11.40;99.90;;;;;;5397955;26;20006;-71
2024/04/25 11:40:05;;;;;;;2.72;0.52;;;11.50;99.90;;;;;;5415612;26;20018;-72
2024/04/25 11:42:35;;;;;;;5.22;0.68;;;11.70;99.90;;;;;;5409052;26;20364;-72
2024/04/25 11:45:02;;;;;;;3.50;0.88;;;11.80;99.90;;;;;;5418203;26;20010;-72
2024/04/25 11:47:29;;;;;;;1.35;0.30;;;11.90;99.90;;;;;;5383682;26;20021;-72
2024/04/25 11:49:55;;;;;;;4.05;0.40;;;11.80;99.90;;;;;;5412376;26;20021;-72
2024/04/25 11:52:21;;;;;;;2.25;0.45;;;11.70;99.90;;;;;;5396126;26;20020;-72
2024/04/25 11:54:48;;;;;;;5.90;0.63;;;11.70;99.90;;;;;;5429925;26;20534;-72
2024/04/25 11:57:15;;;;;;;4.53;0.60;;;11.80;99.90;;;;;;5355838;26;20441;-72
2024/04/25 11:59:42;;;;;;;4.80;0.55;;;12.00;99.90;;;;;;5410997;26;20006;-72
2024/04/25 12:02:08;;;;;;;4.30;0.60;;;12.20;99.90;;;;;;5412440;25;20012;-73
2024/04/25 12:04:35;;;;;;;4.53;0.60;;;12.30;99.90;;;;;;5384081;26;20009;-72
2024/04/25 12:07:01;;;;;;;3.40;0.70;;;12.40;99.90;;;;;;5381197;26;20002;-71
2024/04/25 12:09:28;;;;;;;6.50;0.65;;;12.60;99.90;;;;;;5422426;26;21876;-72
2024/04/25 12:11:55;;;;;;;4.70;0.50;;;12.60;99.90;;;;;;5418521;26;20006;-72
2024/04/25 12:14:21;;;;;;;3.05;0.50;;;12.50;99.90;;;;;;5378957;26;20451;-72
2024/04/25 12:16:48;;;;;;;2.47;0.68;;;12.40;99.90;;;;;;5383572;26;20778;-72
2024/04/25 12:19:14;;;;;;;1.73;0.30;;;12.20;99.90;;;;;;5378506;26;20021;-72
2024/04/25 12:21:40;;;;;;;5.10;0.68;;;12.00;99.90;;;;;;5349251;26;20017;-72
2024/04/25 12:24:06;;;;;;;2.65;0.30;;;11.80;99.90;;;;;;5448548;25;20002;-72
2024/04/25 12:26:34;;;;;;;4.13;0.40;;;11.60;99.90;;;;;;5403701;26;20094;-72
2024/04/25 12:29:00;;;;;;;3.33;0.75;;;11.50;99.90;;;;;;5417756;26;20021;-72
2024/04/25 12:31:26;;;;;;;2.95;0.40;;;11.40;99.90;;;;;;5407796;26;20008;-72
2024/04/25 12:33:54;;;;;;;5.05;0.70;;;11.30;99.90;;;;;;5352081;26;20006;-72
2024/04/25 12:36:21;;;;;;;4.53;0.50;;;11.30;99.90;;;;;;5376977;26;20006;-72
2024/04/25 12:38:47;;;;;;;2.05;0.50;;;11.20;99.90;;;;;;5380279;26;20017;-72
2024/04/25 12:41:14;;;;;;;1.83;0.50;;;11.10;99.90;;;;;;5421960;26;20045;-72
2024/04/25 12:43:40;;;;;;;3.63;0.45;;;11.10;99.90;;;;;;5403199;26;20013;-72
2024/04/25 12:46:06;;;;;;;3.85;0.70;;;11.10;99.90;;;;;;5391668;26;20013;-72
2024/04/25 12:48:33;;;;;;;6.28;0.70;;;11.10;99.90;;;;;;5377195;26;20010;-72
2024/04/25 12:51:00;;;;;;;4.40;1.33;;;11.30;99.90;;;;;;5407139;26;19994;-72
2024/04/25 12:53:26;;;;;;;4.38;1.10;;;11.50;99.90;;;;;;5415438;26;20017;-72
2024/04/25 12:55:55;;;;;;;4.90;1.48;;;11.90;99.90;;;;;;5381153;26;20002;-72